Time,TemperatureF,DewpointF,PressureIn,WindDirection,WindDirectionDegrees,WindSpeedMPH,WindSpeedGustMPH,Humidity,HourlyPrecipIn,Conditions,Clouds,dailyrainin,SolarRadiationWatts/m^2,SoftwareType,DateUTC
2013-05-29 00:00:00,59.8,28.5,29.35,ESE,102,4.0,-999.0,13,-99.99,,,0.00,0.0,cwc,2013-05-29 06:00:00,
2013-05-29 00:05:00,60.2,28.9,29.34,East,100,2.0,-999.0,13,-99.99,,,0.00,0.0,cwc,2013-05-29 06:05:00,
2013-05-29 00:10:00,60.7,29.0,29.34,ESE,112,6.0,-999.0,12,-99.99,,,0.00,0.0,cwc,2013-05-29 06:10:00,
2013-05-29 00:15:00,60.9,29.2,29.34,ESE,113,0.0,-999.0,12,-99.99,,,0.00,0.0,cwc,2013-05-29 06:15:00,
2013-05-29 00:20:00,60.7,29.0,29.34,ESE,113,0.0,-999.0,12,-99.99,,,0.00,0.0,cwc,2013-05-29 06:20:00,
2013-05-29 00:25:00,60.7,29.0,29.34,ESE,113,0.0,-999.0,12,-99.99,,,0.00,0.0,cwc,2013-05-29 06:25:00,
2013-05-29 00:30:00,60.2,28.5,29.34,ESE,113,0.0,-999.0,12,-99.99,,,0.00,0.0,cwc,2013-05-29 06:30:00,
2013-05-29 00:35:00,59.8,28.5,29.35,NW,309,8.0,-999.0,13,-99.99,,,0.00,0.0,cwc,2013-05-29 06:35:00,
2013-05-29 00:40:00,60.2,28.9,29.35,North,359,0.0,-999.0,13,-99.99,,,0.00,0.0,cwc,2013-05-29 06:40:00,
2013-05-29 00:45:00,60.2,28.9,29.35,North,359,0.0,-999.0,13,-99.99,,,0.00,0.0,cwc,2013-05-29 06:45:00,
2013-05-29 00:50:00,60.1,28.8,29.35,North,359,0.0,-999.0,13,-99.99,,,0.00,0.0,cwc,2013-05-29 06:50:00,
2013-05-29 00:55:00,60.1,28.8,29.35,North,359,0.0,-999.0,13,-99.99,,,0.00,0.0,cwc,2013-05-29 06:55:00,
2013-05-29 01:00:00,59.6,28.3,29.35,NNW,329,0.0,-999.0,13,-99.99,,,0.00,0.0,cwc,2013-05-29 07:00:00,
2013-05-29 01:05:00,59.5,28.2,29.35,NNW,329,0.0,-999.0,13,-99.99,,,0.00,0.0,cwc,2013-05-29 07:05:00,
2013-05-29 01:10:00,59.3,28.3,29.35,NNW,329,0.0,-999.0,14,-99.99,,,0.00,0.0,cwc,2013-05-29 07:10:00,
2013-05-29 01:15:00,59.0,28.0,29.35,NNW,329,0.0,-999.0,14,-99.99,,,0.00,0.0,cwc,2013-05-29 07:15:00,
2013-05-29 01:20:00,58.4,27.8,29.36,SE,134,0.0,-999.0,15,-99.99,,,0.00,0.0,cwc,2013-05-29 07:20:00,
2013-05-29 01:25:00,59.6,29.0,29.36,WSW,243,7.0,-999.0,15,-99.99,,,0.00,0.0,cwc,2013-05-29 07:25:00,
2013-05-29 01:30:00,61.0,31.1,29.36,NNW,329,0.0,-999.0,17,-99.99,,,0.00,0.0,cwc,2013-05-29 07:30:00,
2013-05-29 01:35:00,61.3,31.4,29.34,West,261,0.0,-999.0,17,-99.99,,,0.00,0.0,cwc,2013-05-29 07:35:00,
2013-05-29 01:40:00,61.3,31.1,29.34,West,261,0.0,-999.0,16,-99.99,,,0.00,0.0,cwc,2013-05-29 07:40:00,
2013-05-29 01:45:00,61.5,31.3,29.34,West,261,0.0,-999.0,16,-99.99,,,0.00,0.0,cwc,2013-05-29 07:45:00,
2013-05-29 01:50:00,62.1,32.2,29.34,West,261,0.0,-999.0,17,-99.99,,,0.00,0.0,cwc,2013-05-29 07:50:00,
2013-05-29 01:55:00,62.3,32.4,29.34,West,261,0.0,-999.0,17,-99.99,,,0.00,0.0,cwc,2013-05-29 07:55:00,
2013-05-29 02:00:00,63.2,33.3,29.34,WSW,253,0.0,-999.0,17,-99.99,,,0.00,0.0,cwc,2013-05-29 08:00:00,
2013-05-29 02:05:00,63.2,33.3,29.33,SW,230,0.0,-999.0,17,-99.99,,,0.00,0.0,cwc,2013-05-29 08:05:00,
2013-05-29 02:10:00,64.0,34.1,29.33,SW,227,2.0,-999.0,17,-99.99,,,0.00,0.0,cwc,2013-05-29 08:10:00,
2013-05-29 02:15:00,64.3,34.8,29.33,WSW,237,10.0,-999.0,18,-99.99,,,0.00,0.0,cwc,2013-05-29 08:15:00,
2013-05-29 02:20:00,64.0,34.5,29.32,NW,305,0.0,-999.0,18,-99.99,,,0.00,0.0,cwc,2013-05-29 08:20:00,
2013-05-29 02:25:00,63.9,34.4,29.32,NW,305,0.0,-999.0,18,-99.99,,,0.00,0.0,cwc,2013-05-29 08:25:00,
2013-05-29 02:30:00,63.7,34.5,29.32,NW,305,0.0,-999.0,19,-99.99,,,0.00,0.0,cwc,2013-05-29 08:30:00,
2013-05-29 02:35:00,63.4,34.2,29.33,NW,305,4.0,-999.0,19,-99.99,,,0.00,0.0,cwc,2013-05-29 08:35:00,
2013-05-29 02:40:00,62.9,34.5,29.33,NW,311,1.0,-999.0,21,-99.99,,,0.00,0.0,cwc,2013-05-29 08:40:00,
2013-05-29 02:45:00,62.7,34.3,29.33,NW,304,6.0,-999.0,21,-99.99,,,0.00,0.0,cwc,2013-05-29 08:45:00,
2013-05-29 02:50:00,62.9,36.6,29.33,NW,304,0.0,-999.0,27,-99.99,,,0.00,0.0,cwc,2013-05-29 08:50:00,
2013-05-29 02:55:00,62.4,34.0,29.33,NW,308,2.0,-999.0,21,-99.99,,,0.00,0.0,cwc,2013-05-29 08:55:00,
2013-05-29 03:00:00,62.1,33.7,29.33,NW,309,0.0,-999.0,21,-99.99,,,0.00,0.0,cwc,2013-05-29 09:00:00,
2013-05-29 03:05:00,62.1,35.8,29.34,NW,309,0.0,-999.0,27,-99.99,,,0.00,0.0,cwc,2013-05-29 09:05:00,
2013-05-29 03:10:00,61.3,33.2,29.34,NW,309,0.0,-999.0,22,-99.99,,,0.00,0.0,cwc,2013-05-29 09:10:00,
2013-05-29 03:15:00,61.0,33.3,29.34,NW,309,0.0,-999.0,23,-99.99,,,0.00,0.0,cwc,2013-05-29 09:15:00,
2013-05-29 03:20:00,60.1,32.0,29.36,NW,309,0.0,-999.0,22,-99.99,,,0.00,0.0,cwc,2013-05-29 09:20:00,
2013-05-29 03:25:00,58.9,30.5,29.36,SW,222,4.0,-999.0,21,-99.99,,,0.00,0.0,cwc,2013-05-29 09:25:00,
2013-05-29 03:30:00,58.3,30.6,29.36,South,189,2.0,-999.0,23,-99.99,,,0.00,0.0,cwc,2013-05-29 09:30:00,
2013-05-29 03:35:00,58.0,31.7,29.36,South,189,0.0,-999.0,27,-99.99,,,0.00,0.0,cwc,2013-05-29 09:35:00,
2013-05-29 03:40:00,56.2,30.3,29.36,South,189,0.0,-999.0,28,-99.99,,,0.00,0.0,cwc,2013-05-29 09:40:00,
2013-05-29 03:45:00,55.3,29.0,29.36,South,184,0.0,-999.0,27,-99.99,,,0.00,0.0,cwc,2013-05-29 09:45:00,
2013-05-29 03:50:00,54.5,28.6,29.39,East,100,0.0,-999.0,28,-99.99,,,0.00,0.0,cwc,2013-05-29 09:50:00,
2013-05-29 03:55:00,54.2,28.3,29.39,East,100,4.0,-999.0,28,-99.99,,,0.00,0.0,cwc,2013-05-29 09:55:00,
2013-05-29 04:00:00,53.8,27.9,29.39,ESE,103,0.0,-999.0,28,-99.99,,,0.00,0.0,cwc,2013-05-29 10:00:00,
2013-05-29 04:05:00,54.1,28.9,29.39,ESE,103,0.0,-999.0,30,-99.99,,,0.00,0.0,cwc,2013-05-29 10:05:00,
2013-05-29 04:10:00,53.9,29.1,29.39,ESE,103,0.0,-999.0,31,-99.99,,,0.00,0.0,cwc,2013-05-29 10:10:00,
2013-05-29 04:15:00,52.9,28.1,29.39,ESE,103,0.0,-999.0,31,-99.99,,,0.00,0.0,cwc,2013-05-29 10:15:00,
2013-05-29 04:20:00,52.9,28.1,29.39,ESE,103,0.0,-999.0,31,-99.99,,,0.00,0.0,cwc,2013-05-29 10:20:00,
2013-05-29 04:25:00,52.9,29.1,29.39,ESE,103,0.0,-999.0,34,-99.99,,,0.00,0.0,cwc,2013-05-29 10:25:00,
2013-05-29 04:30:00,52.6,28.1,29.39,ESE,103,0.0,-999.0,32,-99.99,,,0.00,0.0,cwc,2013-05-29 10:30:00,
2013-05-29 04:35:00,52.8,31.2,29.39,ESE,103,0.0,-999.0,40,-99.99,,,0.00,0.0,cwc,2013-05-29 10:35:00,
2013-05-29 04:40:00,51.9,27.4,29.39,ESE,103,0.0,-999.0,32,-99.99,,,0.00,0.0,cwc,2013-05-29 10:40:00,
2013-05-29 04:45:00,51.9,28.1,29.39,ESE,102,0.0,-999.0,34,-99.99,,,0.00,0.0,cwc,2013-05-29 10:45:00,
2013-05-29 04:50:00,51.7,28.3,29.40,ESE,102,0.0,-999.0,35,-99.99,,,0.00,0.0,cwc,2013-05-29 10:50:00,
2013-05-29 04:55:00,51.7,28.3,29.40,ESE,102,0.0,-999.0,35,-99.99,,,0.00,0.0,cwc,2013-05-29 10:55:00,
2013-05-29 05:00:00,51.7,28.3,29.40,ESE,102,2.0,-999.0,35,-99.99,,,0.00,0.0,cwc,2013-05-29 11:00:00,
2013-05-29 05:05:00,51.4,28.0,29.41,ESE,102,0.0,-999.0,35,-99.99,,,0.00,0.0,cwc,2013-05-29 11:05:00,
2013-05-29 05:10:00,51.4,27.6,29.41,ESE,102,2.0,-999.0,34,-99.99,,,0.00,0.0,cwc,2013-05-29 11:10:00,
2013-05-29 05:15:00,51.4,27.6,29.41,East,96,2.0,-999.0,34,-99.99,,,0.00,0.0,cwc,2013-05-29 11:15:00,
2013-05-29 05:20:00,51.4,26.9,29.43,East,96,0.0,-999.0,32,-99.99,,,0.00,0.0,cwc,2013-05-29 11:20:00,
2013-05-29 05:25:00,51.6,27.1,29.43,East,96,0.0,-999.0,32,-99.99,,,0.00,0.0,cwc,2013-05-29 11:25:00,
2013-05-29 05:30:00,51.6,27.1,29.43,East,97,2.0,-999.0,32,-99.99,,,0.00,0.0,cwc,2013-05-29 11:30:00,
2013-05-29 05:35:00,51.6,27.1,29.43,ESE,103,4.0,-999.0,32,-99.99,,,0.00,0.0,cwc,2013-05-29 11:35:00,
2013-05-29 05:45:00,51.7,27.2,29.43,ESE,110,0.0,-999.0,32,-99.99,,,0.00,0.0,cwc,2013-05-29 11:45:00,
2013-05-29 05:50:00,51.9,27.4,29.43,ESE,110,0.0,-999.0,32,-99.99,,,0.00,0.0,cwc,2013-05-29 11:50:00,
2013-05-29 05:55:00,51.9,27.4,29.43,ESE,110,4.0,-999.0,32,-99.99,,,0.00,0.0,cwc,2013-05-29 11:55:00,
2013-05-29 06:00:00,52.0,27.5,29.43,ESE,110,0.0,-999.0,32,-99.99,,,0.00,0.0,cwc,2013-05-29 12:00:00,
2013-05-29 06:05:00,52.0,27.5,29.43,ESE,110,0.0,-999.0,32,-99.99,,,0.00,0.0,cwc,2013-05-29 12:05:00,
2013-05-29 06:10:00,52.3,28.9,29.43,ESE,110,0.0,-999.0,35,-99.99,,,0.00,0.0,cwc,2013-05-29 12:10:00,
2013-05-29 06:15:00,52.3,28.2,29.43,ESE,110,0.0,-999.0,33,-99.99,,,0.00,0.0,cwc,2013-05-29 12:15:00,
2013-05-29 06:20:00,52.5,28.4,29.44,ESE,110,0.0,-999.0,33,-99.99,,,0.00,0.0,cwc,2013-05-29 12:20:00,
2013-05-29 06:25:00,53.1,33.7,29.44,ESE,110,0.0,-999.0,46,-99.99,,,0.00,0.0,cwc,2013-05-29 12:25:00,
2013-05-29 06:30:00,53.3,29.2,29.44,ESE,110,0.0,-999.0,33,-99.99,,,0.00,0.0,cwc,2013-05-29 12:30:00,
2013-05-29 06:35:00,53.2,29.1,29.44,ESE,110,0.0,-999.0,33,-99.99,,,0.00,0.0,cwc,2013-05-29 12:35:00,
2013-05-29 06:40:00,53.5,29.4,29.44,ESE,110,0.0,-999.0,33,-99.99,,,0.00,0.0,cwc,2013-05-29 12:40:00,
2013-05-29 06:45:00,54.4,31.0,29.44,ESE,110,0.0,-999.0,35,-99.99,,,0.00,0.0,cwc,2013-05-29 12:45:00,
2013-05-29 06:50:00,54.2,30.4,29.44,ESE,110,0.0,-999.0,34,-99.99,,,0.00,0.0,cwc,2013-05-29 12:50:00,
2013-05-29 06:55:00,54.7,30.9,29.44,ESE,110,0.0,-999.0,34,-99.99,,,0.00,0.0,cwc,2013-05-29 12:55:00,
2013-05-29 07:00:00,54.2,30.4,29.44,ESE,110,0.0,-999.0,34,-99.99,,,0.00,0.0,cwc,2013-05-29 13:00:00,
2013-05-29 07:05:00,55.7,32.3,29.44,ESE,110,0.0,-999.0,35,-99.99,,,0.00,0.0,cwc,2013-05-29 13:05:00,
2013-05-29 07:10:00,55.3,31.9,29.44,ESE,110,0.0,-999.0,35,-99.99,,,0.00,0.0,cwc,2013-05-29 13:10:00,
2013-05-29 07:15:00,55.9,33.6,29.44,ESE,110,0.0,-999.0,38,-99.99,,,0.00,0.0,cwc,2013-05-29 13:15:00,
2013-05-29 07:20:00,56.2,32.8,29.42,ESE,110,0.0,-999.0,35,-99.99,,,0.00,0.0,cwc,2013-05-29 13:20:00,
2013-05-29 07:25:00,57.0,33.6,29.42,ESE,110,0.0,-999.0,35,-99.99,,,0.00,0.0,cwc,2013-05-29 13:25:00,
2013-05-29 07:30:00,59.0,37.4,29.42,ESE,110,0.0,-999.0,40,-99.99,,,0.00,0.0,cwc,2013-05-29 13:30:00,
2013-05-29 07:35:00,60.2,36.1,29.39,ESE,110,0.0,-999.0,33,-99.99,,,0.00,0.0,cwc,2013-05-29 13:35:00,
2013-05-29 07:40:00,60.1,36.3,29.39,ESE,110,0.0,-999.0,34,-99.99,,,0.00,0.0,cwc,2013-05-29 13:40:00,
2013-05-29 07:45:00,60.2,36.8,29.39,ESE,110,0.0,-999.0,35,-99.99,,,0.00,0.0,cwc,2013-05-29 13:45:00,
2013-05-29 07:50:00,61.0,37.6,29.39,ESE,110,0.0,-999.0,35,-99.99,,,0.00,0.0,cwc,2013-05-29 13:50:00,
2013-05-29 07:55:00,61.5,37.7,29.39,ESE,110,0.0,-999.0,34,-99.99,,,0.00,0.0,cwc,2013-05-29 13:55:00,
2013-05-29 08:00:00,62.0,37.9,29.39,ESE,110,0.0,-999.0,33,-99.99,,,0.00,0.0,cwc,2013-05-29 14:00:00,
2013-05-29 08:05:00,63.1,39.0,29.37,ESE,110,0.0,-999.0,33,-99.99,,,0.00,0.0,cwc,2013-05-29 14:05:00,
2013-05-29 08:10:00,63.1,39.0,29.37,East,100,2.0,-999.0,33,-99.99,,,0.00,0.0,cwc,2013-05-29 14:10:00,
2013-05-29 08:15:00,63.1,38.6,29.37,NE,47,0.0,-999.0,32,-99.99,,,0.00,0.0,cwc,2013-05-29 14:15:00,
2013-05-29 08:20:00,63.4,38.9,29.38,NE,47,4.0,-999.0,32,-99.99,,,0.00,0.0,cwc,2013-05-29 14:20:00,
2013-05-29 08:30:00,64.0,39.9,29.38,WSW,254,7.0,-999.0,33,-99.99,,,0.00,0.0,cwc,2013-05-29 14:30:00,
2013-05-29 08:35:00,63.2,38.7,29.37,SW,234,13.0,-999.0,32,-99.99,,,0.00,0.0,cwc,2013-05-29 14:35:00,
2013-05-29 08:40:00,63.5,39.0,29.37,WSW,248,8.0,-999.0,32,-99.99,,,0.00,0.0,cwc,2013-05-29 14:40:00,
2013-05-29 08:45:00,63.4,39.3,29.37,WSW,247,10.0,-999.0,33,-99.99,,,0.00,0.0,cwc,2013-05-29 14:45:00,
2013-05-29 08:50:00,63.5,39.7,29.37,SW,227,6.0,-999.0,34,-99.99,,,0.00,0.0,cwc,2013-05-29 14:50:00,
2013-05-29 08:55:00,63.9,39.4,29.37,South,182,2.0,-999.0,32,-99.99,,,0.00,0.0,cwc,2013-05-29 14:55:00,
2013-05-29 09:00:00,64.0,39.9,29.37,SW,229,0.0,-999.0,33,-99.99,,,0.00,0.0,cwc,2013-05-29 15:00:00,
2013-05-29 09:05:00,63.4,39.6,29.37,SSE,167,10.0,-999.0,34,-99.99,,,0.00,0.0,cwc,2013-05-29 15:05:00,
2013-05-29 09:10:00,63.9,39.8,29.37,SSE,161,0.0,-999.0,33,-99.99,,,0.00,0.0,cwc,2013-05-29 15:10:00,
2013-05-29 09:15:00,63.5,39.0,29.37,SW,236,14.0,-999.0,32,-99.99,,,0.00,0.0,cwc,2013-05-29 15:15:00,
2013-05-29 09:20:00,64.2,39.4,29.41,SSW,196,10.0,-999.0,31,-99.99,,,0.00,0.0,cwc,2013-05-29 15:20:00,
2013-05-29 09:25:00,65.0,39.8,29.41,North,349,0.0,-999.0,30,-99.99,,,0.00,0.0,cwc,2013-05-29 15:25:00,
2013-05-29 09:30:00,65.6,40.0,29.41,SSW,196,1.0,-999.0,29,-99.99,,,0.00,0.0,cwc,2013-05-29 15:30:00,
2013-05-29 09:35:00,66.6,41.0,29.39,SW,233,8.0,-999.0,29,-99.99,,,0.00,0.0,cwc,2013-05-29 15:35:00,
2013-05-29 09:40:00,67.1,41.2,29.39,WNW,288,6.0,-999.0,28,-99.99,,,0.00,0.0,cwc,2013-05-29 15:40:00,
2013-05-29 09:45:00,68.1,42.2,29.39,NW,308,8.0,-999.0,28,-99.99,,,0.00,0.0,cwc,2013-05-29 15:45:00,
2013-05-29 09:55:00,67.9,40.2,29.38,SW,233,6.0,-999.0,23,-99.99,,,0.00,0.0,cwc,2013-05-29 15:55:00,
2013-05-29 10:00:00,68.1,40.4,29.38,NW,320,13.0,-999.0,23,-99.99,,,0.00,0.0,cwc,2013-05-29 16:00:00,
2013-05-29 10:05:00,68.3,40.2,29.38,NW,320,7.0,-999.0,22,-99.99,,,0.00,0.0,cwc,2013-05-29 16:05:00,
2013-05-29 10:10:00,67.6,39.5,29.38,West,277,7.0,-999.0,22,-99.99,,,0.00,0.0,cwc,2013-05-29 16:10:00,
2013-05-29 10:15:00,67.9,39.8,29.38,NW,323,17.0,-999.0,22,-99.99,,,0.00,0.0,cwc,2013-05-29 16:15:00,
2013-05-29 10:20:00,68.6,40.5,29.40,WSW,241,4.0,-999.0,22,-99.99,,,0.00,0.0,cwc,2013-05-29 16:20:00,
2013-05-29 10:25:00,69.4,41.7,29.40,WSW,243,6.0,-999.0,23,-99.99,,,0.00,0.0,cwc,2013-05-29 16:25:00,
2013-05-29 10:30:00,70.3,41.9,29.40,WNW,289,4.0,-999.0,21,-99.99,,,0.00,0.0,cwc,2013-05-29 16:30:00,
2013-05-29 10:35:00,68.8,41.1,29.38,NW,306,6.0,-999.0,23,-99.99,,,0.00,0.0,cwc,2013-05-29 16:35:00,
2013-05-29 10:40:00,67.8,40.1,29.38,NW,305,11.0,-999.0,23,-99.99,,,0.00,0.0,cwc,2013-05-29 16:40:00,
2013-05-29 10:45:00,67.8,40.8,29.38,WSW,248,2.0,-999.0,25,-99.99,,,0.00,0.0,cwc,2013-05-29 16:45:00,
2013-05-29 10:50:00,67.3,40.7,29.39,South,188,16.0,-999.0,26,-99.99,,,0.00,0.0,cwc,2013-05-29 16:50:00,
2013-05-29 10:55:00,66.8,39.8,29.39,SSE,168,9.0,-999.0,25,-99.99,,,0.00,0.0,cwc,2013-05-29 16:55:00,
2013-05-29 11:00:00,67.8,40.4,29.39,South,175,8.0,-999.0,24,-99.99,,,0.00,0.0,cwc,2013-05-29 17:00:00,
2013-05-29 11:10:00,69.1,41.4,29.39,SSW,198,10.0,-999.0,23,-99.99,,,0.00,0.0,cwc,2013-05-29 17:10:00,
2013-05-29 11:15:00,69.3,41.6,29.39,West,271,8.0,-999.0,23,-99.99,,,0.00,0.0,cwc,2013-05-29 17:15:00,
2013-05-29 11:20:00,68.1,40.4,29.39,WSW,247,10.0,-999.0,23,-99.99,,,0.00,0.0,cwc,2013-05-29 17:20:00,
2013-05-29 11:25:00,67.4,40.4,29.39,SW,234,17.0,-999.0,25,-99.99,,,0.00,0.0,cwc,2013-05-29 17:25:00,
2013-05-29 11:30:00,67.4,40.0,29.39,SSW,208,14.0,-999.0,24,-99.99,,,0.00,0.0,cwc,2013-05-29 17:30:00,
2013-05-29 11:35:00,67.1,40.1,29.40,SSW,205,17.0,-999.0,25,-99.99,,,0.00,0.0,cwc,2013-05-29 17:35:00,
2013-05-29 11:40:00,67.9,40.2,29.40,NW,312,2.0,-999.0,23,-99.99,,,0.00,0.0,cwc,2013-05-29 17:40:00,
2013-05-29 11:45:00,68.1,41.1,29.40,NW,316,8.0,-999.0,25,-99.99,,,0.00,0.0,cwc,2013-05-29 17:45:00,
2013-05-29 11:50:00,68.9,39.0,29.39,WNW,288,9.0,-999.0,17,-99.99,,,0.00,0.0,cwc,2013-05-29 17:50:00,
2013-05-29 11:55:00,70.1,40.2,29.39,NW,311,7.0,-999.0,17,-99.99,,,0.00,0.0,cwc,2013-05-29 17:55:00,
2013-05-29 12:00:00,69.9,40.0,29.39,West,261,8.0,-999.0,17,-99.99,,,0.00,0.0,cwc,2013-05-29 18:00:00,
2013-05-29 12:05:00,71.1,41.2,29.38,West,278,7.0,-999.0,17,-99.99,,,0.00,0.0,cwc,2013-05-29 18:05:00,
2013-05-29 12:10:00,72.0,41.8,29.38,SSW,196,14.0,-999.0,16,-99.99,,,0.00,0.0,cwc,2013-05-29 18:10:00,
2013-05-29 12:15:00,72.1,41.5,29.38,NW,325,11.0,-999.0,15,-99.99,,,0.00,0.0,cwc,2013-05-29 18:15:00,
2013-05-29 12:20:00,71.8,41.6,29.37,WNW,292,6.0,-999.0,16,-99.99,,,0.00,0.0,cwc,2013-05-29 18:20:00,
2013-05-29 12:25:00,71.1,40.5,29.37,WNW,296,7.0,-999.0,15,-99.99,,,0.00,0.0,cwc,2013-05-29 18:25:00,
2013-05-29 12:30:00,70.9,41.0,29.37,NW,319,9.0,-999.0,17,-99.99,,,0.00,0.0,cwc,2013-05-29 18:30:00,
2013-05-29 12:35:00,72.1,41.9,29.38,WSW,237,6.0,-999.0,16,-99.99,,,0.00,0.0,cwc,2013-05-29 18:35:00,
2013-05-29 12:40:00,73.2,42.6,29.38,NW,312,14.0,-999.0,15,-99.99,,,0.00,0.0,cwc,2013-05-29 18:40:00,
2013-05-29 12:45:00,72.0,41.8,29.38,NW,308,15.0,-999.0,16,-99.99,,,0.00,0.0,cwc,2013-05-29 18:45:00,
2013-05-29 12:50:00,72.3,41.7,29.37,NNW,333,8.0,-999.0,15,-99.99,,,0.00,0.0,cwc,2013-05-29 18:50:00,
2013-05-29 12:55:00,72.0,41.8,29.37,NW,316,14.0,-999.0,16,-99.99,,,0.00,0.0,cwc,2013-05-29 18:55:00,
2013-05-29 13:00:00,72.3,42.1,29.37,NW,306,14.0,-999.0,16,-99.99,,,0.00,0.0,cwc,2013-05-29 19:00:00,
2013-05-29 13:10:00,72.0,41.4,29.36,NNW,328,14.0,-999.0,15,-99.99,,,0.00,0.0,cwc,2013-05-29 19:10:00,
2013-05-29 13:15:00,73.2,42.6,29.36,West,275,9.0,-999.0,15,-99.99,,,0.00,0.0,cwc,2013-05-29 19:15:00,
2013-05-29 13:20:00,73.3,42.7,29.34,SW,222,14.0,-999.0,15,-99.99,,,0.00,0.0,cwc,2013-05-29 19:20:00,
2013-05-29 13:25:00,75.3,45.1,29.34,West,277,8.0,-999.0,16,-99.99,,,0.00,0.0,cwc,2013-05-29 19:25:00,
2013-05-29 13:30:00,74.2,43.2,29.34,West,281,9.0,-999.0,14,-99.99,,,0.00,0.0,cwc,2013-05-29 19:30:00,
2013-05-29 13:35:00,73.0,42.0,29.34,NW,313,7.0,-999.0,14,-99.99,,,0.00,0.0,cwc,2013-05-29 19:35:00,
2013-05-29 13:40:00,73.0,41.7,29.34,NW,304,7.0,-999.0,13,-99.99,,,0.00,0.0,cwc,2013-05-29 19:40:00,
2013-05-29 13:45:00,73.3,42.0,29.34,West,268,13.0,-999.0,13,-99.99,,,0.00,0.0,cwc,2013-05-29 19:45:00,
2013-05-29 13:50:00,73.0,41.7,29.34,NW,311,16.0,-999.0,13,-99.99,,,0.00,0.0,cwc,2013-05-29 19:50:00,
2013-05-29 13:55:00,73.0,42.0,29.34,NNW,330,15.0,-999.0,14,-99.99,,,0.00,0.0,cwc,2013-05-29 19:55:00,
2013-05-29 14:00:00,72.7,41.4,29.34,NW,308,8.0,-999.0,13,-99.99,,,0.00,0.0,cwc,2013-05-29 20:00:00,
2013-05-29 14:05:00,72.7,41.4,29.33,WNW,298,9.0,-999.0,13,-99.99,,,0.00,0.0,cwc,2013-05-29 20:05:00,
2013-05-29 14:10:00,74.7,43.4,29.33,NW,312,8.0,-999.0,13,-99.99,,,0.00,0.0,cwc,2013-05-29 20:10:00,
2013-05-29 14:15:00,73.9,42.2,29.33,WNW,287,10.0,-999.0,12,-99.99,,,0.00,0.0,cwc,2013-05-29 20:15:00,
2013-05-29 14:20:00,72.7,41.4,29.33,NW,304,15.0,-999.0,13,-99.99,,,0.00,0.0,cwc,2013-05-29 20:20:00,
2013-05-29 14:25:00,73.5,41.8,29.33,WNW,296,9.0,-999.0,12,-99.99,,,0.00,0.0,cwc,2013-05-29 20:25:00,
2013-05-29 14:30:00,73.3,41.6,29.33,NW,308,9.0,-999.0,12,-99.99,,,0.00,0.0,cwc,2013-05-29 20:30:00,
2013-05-29 14:35:00,73.9,42.2,29.34,NW,304,1.0,-999.0,12,-99.99,,,0.00,0.0,cwc,2013-05-29 20:35:00,
2013-05-29 14:40:00,73.7,42.0,29.34,WNW,289,11.0,-999.0,12,-99.99,,,0.00,0.0,cwc,2013-05-29 20:40:00,
2013-05-29 14:45:00,74.0,42.0,29.34,NNW,335,13.0,-999.0,11,-99.99,,,0.00,0.0,cwc,2013-05-29 20:45:00,
2013-05-29 14:50:00,74.4,42.4,29.32,NW,306,13.0,-999.0,11,-99.99,,,0.00,0.0,cwc,2013-05-29 20:50:00,
2013-05-29 14:55:00,74.0,41.6,29.32,WNW,291,8.0,-999.0,10,-99.99,,,0.00,0.0,cwc,2013-05-29 20:55:00,
2013-05-29 15:00:00,74.6,42.2,29.32,NW,309,11.0,-999.0,10,-99.99,,,0.00,0.0,cwc,2013-05-29 21:00:00,
2013-05-29 15:05:00,74.2,41.8,29.32,NW,313,14.0,-999.0,10,-99.99,,,0.00,0.0,cwc,2013-05-29 21:05:00,
2013-05-29 15:10:00,73.7,41.7,29.32,WNW,296,11.0,-999.0,11,-99.99,,,0.00,0.0,cwc,2013-05-29 21:10:00,
2013-05-29 15:15:00,73.5,41.1,29.32,WSW,248,10.0,-999.0,10,-99.99,,,0.00,0.0,cwc,2013-05-29 21:15:00,
2013-05-29 15:20:00,74.9,42.5,29.35,WNW,295,14.0,-999.0,10,-99.99,,,0.00,0.0,cwc,2013-05-29 21:20:00,
2013-05-29 15:25:00,74.9,42.9,29.35,NNW,342,8.0,-999.0,11,-99.99,,,0.00,0.0,cwc,2013-05-29 21:25:00,
2013-05-29 15:30:00,74.0,42.0,29.35,NW,325,10.0,-999.0,11,-99.99,,,0.00,0.0,cwc,2013-05-29 21:30:00,
2013-05-29 15:35:00,74.6,42.2,29.35,WNW,298,6.0,-999.0,10,-99.99,,,0.00,0.0,cwc,2013-05-29 21:35:00,
2013-05-29 15:40:00,75.1,42.7,29.35,West,280,11.0,-999.0,10,-99.99,,,0.00,0.0,cwc,2013-05-29 21:40:00,
2013-05-29 15:45:00,75.4,43.0,29.35,WNW,292,2.0,-999.0,10,-99.99,,,0.00,0.0,cwc,2013-05-29 21:45:00,
2013-05-29 15:50:00,74.7,42.7,29.33,WNW,285,7.0,-999.0,11,-99.99,,,0.00,0.0,cwc,2013-05-29 21:50:00,
2013-05-29 15:55:00,74.4,42.4,29.33,NW,312,9.0,-999.0,11,-99.99,,,0.00,0.0,cwc,2013-05-29 21:55:00,
2013-05-29 16:00:00,74.0,41.6,29.33,SW,230,7.0,-999.0,10,-99.99,,,0.00,0.0,cwc,2013-05-29 22:00:00,
2013-05-29 16:05:00,74.7,42.3,29.33,WNW,302,15.0,-999.0,10,-99.99,,,0.00,0.0,cwc,2013-05-29 22:05:00,
2013-05-29 16:10:00,74.7,42.7,29.33,NW,311,14.0,-999.0,11,-99.99,,,0.00,0.0,cwc,2013-05-29 22:10:00,
2013-05-29 16:15:00,74.9,42.5,29.33,WSW,244,17.0,-999.0,10,-99.99,,,0.00,0.0,cwc,2013-05-29 22:15:00,
2013-05-29 16:20:00,76.3,44.3,29.34,West,267,7.0,-999.0,11,-99.99,,,0.00,0.0,cwc,2013-05-29 22:20:00,
2013-05-29 16:25:00,76.3,44.3,29.34,NW,316,6.0,-999.0,11,-99.99,,,0.00,0.0,cwc,2013-05-29 22:25:00,
2013-05-29 16:30:00,75.6,43.6,29.34,WNW,285,8.0,-999.0,11,-99.99,,,0.00,0.0,cwc,2013-05-29 22:30:00,
2013-05-29 16:40:00,77.2,44.4,29.32,NW,305,9.0,-999.0,9,-99.99,,,0.00,0.0,cwc,2013-05-29 22:40:00,
2013-05-29 16:45:00,76.3,43.5,29.32,WNW,298,8.0,-999.0,9,-99.99,,,0.00,0.0,cwc,2013-05-29 22:45:00,
2013-05-29 16:50:00,76.5,43.4,29.33,West,264,7.0,-999.0,8,-99.99,,,0.00,0.0,cwc,2013-05-29 22:50:00,
2013-05-29 16:55:00,76.1,43.0,29.33,West,267,7.0,-999.0,8,-99.99,,,0.00,0.0,cwc,2013-05-29 22:55:00,
2013-05-29 17:00:00,75.8,42.7,29.33,NNW,328,14.0,-999.0,8,-99.99,,,0.00,0.0,cwc,2013-05-29 23:00:00,
2013-05-29 17:05:00,76.5,43.7,29.32,WNW,289,11.0,-999.0,9,-99.99,,,0.00,0.0,cwc,2013-05-29 23:05:00,
2013-05-29 17:10:00,75.4,42.6,29.32,WNW,282,20.0,-999.0,9,-99.99,,,0.00,0.0,cwc,2013-05-29 23:10:00,
2013-05-29 17:15:00,74.7,41.6,29.32,WNW,295,16.0,-999.0,8,-99.99,,,0.00,0.0,cwc,2013-05-29 23:15:00,
2013-05-29 17:20:00,74.9,42.1,29.34,WNW,295,24.0,-999.0,9,-99.99,,,0.00,0.0,cwc,2013-05-29 23:20:00,
2013-05-29 17:25:00,74.9,42.1,29.34,West,261,9.0,-999.0,9,-99.99,,,0.00,0.0,cwc,2013-05-29 23:25:00,
2013-05-29 17:30:00,74.9,42.1,29.34,NW,315,4.0,-999.0,9,-99.99,,,0.00,0.0,cwc,2013-05-29 23:30:00,
2013-05-29 17:35:00,75.3,42.5,29.33,West,275,7.0,-999.0,9,-99.99,,,0.00,0.0,cwc,2013-05-29 23:35:00,
2013-05-29 17:40:00,74.7,41.9,29.33,West,275,9.0,-999.0,9,-99.99,,,0.00,0.0,cwc,2013-05-29 23:40:00,
2013-05-29 17:45:00,74.6,41.8,29.33,West,277,10.0,-999.0,9,-99.99,,,0.00,0.0,cwc,2013-05-29 23:45:00,
2013-05-29 17:50:00,75.1,42.3,29.33,NW,318,13.0,-999.0,9,-99.99,,,0.00,0.0,cwc,2013-05-29 23:50:00,
2013-05-29 17:55:00,74.7,41.9,29.33,WNW,285,7.0,-999.0,9,-99.99,,,0.00,0.0,cwc,2013-05-29 23:55:00,
2013-05-29 18:00:00,74.4,41.6,29.33,West,281,16.0,-999.0,9,-99.99,,,0.00,0.0,cwc,2013-05-30 00:00:00,
2013-05-29 18:05:00,74.6,41.8,29.33,NW,326,9.0,-999.0,9,-99.99,,,0.00,0.0,cwc,2013-05-30 00:05:00,
2013-05-29 18:10:00,74.2,41.4,29.33,WNW,296,9.0,-999.0,9,-99.99,,,0.00,0.0,cwc,2013-05-30 00:10:00,
2013-05-29 18:15:00,74.2,41.1,29.33,NNW,333,13.0,-999.0,8,-99.99,,,0.00,0.0,cwc,2013-05-30 00:15:00,
2013-05-29 18:20:00,74.0,41.2,29.32,NW,315,10.0,-999.0,9,-99.99,,,0.00,0.0,cwc,2013-05-30 00:20:00,
2013-05-29 18:25:00,74.0,40.9,29.32,NW,309,10.0,-999.0,8,-99.99,,,0.00,0.0,cwc,2013-05-30 00:25:00,
2013-05-29 18:30:00,73.9,41.5,29.32,WNW,302,10.0,-999.0,10,-99.99,,,0.00,0.0,cwc,2013-05-30 00:30:00,
2013-05-29 18:35:00,74.2,41.8,29.31,WNW,298,2.0,-999.0,10,-99.99,,,0.00,0.0,cwc,2013-05-30 00:35:00,
2013-05-29 18:40:00,74.6,42.2,29.31,NW,323,8.0,-999.0,10,-99.99,,,0.00,0.0,cwc,2013-05-30 00:40:00,
2013-05-29 18:45:00,74.4,42.0,29.31,West,278,6.0,-999.0,10,-99.99,,,0.00,0.0,cwc,2013-05-30 00:45:00,
2013-05-29 18:50:00,73.2,40.8,29.31,NW,305,10.0,-999.0,10,-99.99,,,0.00,0.0,cwc,2013-05-30 00:50:00,
2013-05-29 18:55:00,73.2,41.2,29.31,NW,304,6.0,-999.0,11,-99.99,,,0.00,0.0,cwc,2013-05-30 00:55:00,
2013-05-29 19:00:00,72.7,40.7,29.31,NW,312,10.0,-999.0,11,-99.99,,,0.00,0.0,cwc,2013-05-30 01:00:00,
2013-05-29 19:05:00,72.8,41.1,29.33,NNW,335,7.0,-999.0,12,-99.99,,,0.00,0.0,cwc,2013-05-30 01:05:00,
2013-05-29 19:10:00,72.7,40.7,29.33,NNW,329,14.0,-999.0,11,-99.99,,,0.00,0.0,cwc,2013-05-30 01:10:00,
2013-05-29 19:15:00,72.7,40.7,29.33,WNW,289,13.0,-999.0,11,-99.99,,,0.00,0.0,cwc,2013-05-30 01:15:00,
2013-05-29 19:20:00,72.5,40.5,29.29,NW,313,4.0,-999.0,11,-99.99,,,0.00,0.0,cwc,2013-05-30 01:20:00,
2013-05-29 19:25:00,72.5,40.5,29.29,West,261,4.0,-999.0,11,-99.99,,,0.00,0.0,cwc,2013-05-30 01:25:00,
2013-05-29 19:30:00,71.8,39.8,29.29,WSW,247,8.0,-999.0,11,-99.99,,,0.00,0.0,cwc,2013-05-30 01:30:00,
2013-05-29 19:35:00,71.6,39.6,29.30,SW,232,7.0,-999.0,11,-99.99,,,0.00,0.0,cwc,2013-05-30 01:35:00,
2013-05-29 19:40:00,71.5,40.2,29.30,West,275,14.0,-999.0,13,-99.99,,,0.00,0.0,cwc,2013-05-30 01:40:00,
2013-05-29 19:45:00,71.1,39.8,29.30,NW,305,4.0,-999.0,13,-99.99,,,0.00,0.0,cwc,2013-05-30 01:45:00,
2013-05-29 19:50:00,70.4,39.1,29.31,NW,318,21.0,-999.0,13,-99.99,,,0.00,0.0,cwc,2013-05-30 01:50:00,
2013-05-29 19:55:00,70.1,38.8,29.31,WNW,294,4.0,-999.0,13,-99.99,,,0.00,0.0,cwc,2013-05-30 01:55:00,
2013-05-29 20:00:00,69.8,38.5,29.31,NW,311,9.0,-999.0,13,-99.99,,,0.00,0.0,cwc,2013-05-30 02:00:00,
2013-05-29 20:05:00,69.6,38.3,29.32,West,271,6.0,-999.0,13,-99.99,,,0.00,0.0,cwc,2013-05-30 02:05:00,
2013-05-29 20:10:00,69.4,38.1,29.32,WNW,289,7.0,-999.0,13,-99.99,,,0.00,0.0,cwc,2013-05-30 02:10:00,
2013-05-29 20:15:00,69.1,38.1,29.32,West,278,7.0,-999.0,14,-99.99,,,0.00,0.0,cwc,2013-05-30 02:15:00,
2013-05-29 20:20:00,68.8,37.5,29.33,WNW,282,0.0,-999.0,13,-99.99,,,0.00,0.0,cwc,2013-05-30 02:20:00,
2013-05-29 20:25:00,68.8,37.5,29.33,WNW,296,4.0,-999.0,13,-99.99,,,0.00,0.0,cwc,2013-05-30 02:25:00,
2013-05-29 20:30:00,68.4,37.1,29.33,West,260,7.0,-999.0,13,-99.99,,,0.00,0.0,cwc,2013-05-30 02:30:00,
2013-05-29 20:35:00,68.3,37.0,29.34,NW,304,1.0,-999.0,13,-99.99,,,0.00,0.0,cwc,2013-05-30 02:35:00,
2013-05-29 20:40:00,68.1,36.8,29.34,WNW,287,4.0,-999.0,13,-99.99,,,0.00,0.0,cwc,2013-05-30 02:40:00,
2013-05-29 20:45:00,67.9,36.2,29.34,NW,319,10.0,-999.0,12,-99.99,,,0.00,0.0,cwc,2013-05-30 02:45:00,
2013-05-29 20:50:00,67.8,36.8,29.35,WNW,301,0.0,-999.0,14,-99.99,,,0.00,0.0,cwc,2013-05-30 02:50:00,
2013-05-29 20:55:00,67.8,36.5,29.35,NW,309,10.0,-999.0,13,-99.99,,,0.00,0.0,cwc,2013-05-30 02:55:00,
2013-05-29 21:00:00,67.4,36.1,29.35,WNW,298,8.0,-999.0,13,-99.99,,,0.00,0.0,cwc,2013-05-30 03:00:00,
2013-05-29 21:05:00,67.4,36.1,29.37,WNW,301,8.0,-999.0,13,-99.99,,,0.00,0.0,cwc,2013-05-30 03:05:00,
2013-05-29 21:10:00,67.1,35.8,29.37,WNW,299,2.0,-999.0,13,-99.99,,,0.00,0.0,cwc,2013-05-30 03:10:00,
2013-05-29 21:15:00,66.6,35.3,29.37,NW,305,2.0,-999.0,13,-99.99,,,0.00,0.0,cwc,2013-05-30 03:15:00,
2013-05-29 21:20:00,66.6,34.9,29.36,West,280,6.0,-999.0,12,-99.99,,,0.00,0.0,cwc,2013-05-30 03:20:00,
2013-05-29 21:25:00,66.6,35.3,29.36,West,278,2.0,-999.0,13,-99.99,,,0.00,0.0,cwc,2013-05-30 03:25:00,
2013-05-29 21:30:00,66.4,34.7,29.36,NW,305,7.0,-999.0,12,-99.99,,,0.00,0.0,cwc,2013-05-30 03:30:00,
2013-05-29 21:35:00,66.1,34.8,29.37,NW,308,2.0,-999.0,13,-99.99,,,0.00,0.0,cwc,2013-05-30 03:35:00,
2013-05-29 21:40:00,66.3,34.6,29.37,NW,309,6.0,-999.0,12,-99.99,,,0.00,0.0,cwc,2013-05-30 03:40:00,
2013-05-29 21:45:00,66.1,34.8,29.37,WNW,301,1.0,-999.0,13,-99.99,,,0.00,0.0,cwc,2013-05-30 03:45:00,
2013-05-29 21:50:00,66.0,34.7,29.39,West,275,8.0,-999.0,13,-99.99,,,0.00,0.0,cwc,2013-05-30 03:50:00,
2013-05-29 21:55:00,66.0,34.3,29.39,SW,227,0.0,-999.0,12,-99.99,,,0.00,0.0,cwc,2013-05-30 03:55:00,
2013-05-29 22:00:00,65.6,33.9,29.39,West,280,4.0,-999.0,12,-99.99,,,0.00,0.0,cwc,2013-05-30 04:00:00,
2013-05-29 22:05:00,65.6,33.9,29.40,WNW,301,8.0,-999.0,12,-99.99,,,0.00,0.0,cwc,2013-05-30 04:05:00,
2013-05-29 22:10:00,65.5,34.2,29.40,WNW,296,6.0,-999.0,13,-99.99,,,0.00,0.0,cwc,2013-05-30 04:10:00,
2013-05-29 22:15:00,65.0,33.3,29.40,WSW,254,0.0,-999.0,12,-99.99,,,0.00,0.0,cwc,2013-05-30 04:15:00,
2013-05-29 22:20:00,65.0,33.3,29.41,WNW,296,9.0,-999.0,12,-99.99,,,0.00,0.0,cwc,2013-05-30 04:20:00,
2013-05-29 22:25:00,64.7,33.4,29.41,WNW,301,1.0,-999.0,13,-99.99,,,0.00,0.0,cwc,2013-05-30 04:25:00,
2013-05-29 22:30:00,64.0,32.3,29.41,NW,312,4.0,-999.0,12,-99.99,,,0.00,0.0,cwc,2013-05-30 04:30:00,
2013-05-29 22:35:00,63.9,32.6,29.42,NW,306,0.0,-999.0,13,-99.99,,,0.00,0.0,cwc,2013-05-30 04:35:00,
2013-05-29 22:40:00,63.7,32.4,29.42,SW,230,2.0,-999.0,13,-99.99,,,0.00,0.0,cwc,2013-05-30 04:40:00,
2013-05-29 22:45:00,63.9,32.6,29.42,SW,226,4.0,-999.0,13,-99.99,,,0.00,0.0,cwc,2013-05-30 04:45:00,
2013-05-29 22:50:00,63.9,32.6,29.42,SW,233,8.0,-999.0,13,-99.99,,,0.00,0.0,cwc,2013-05-30 04:50:00,
2013-05-29 22:55:00,64.0,32.7,29.42,SW,224,4.0,-999.0,13,-99.99,,,0.00,0.0,cwc,2013-05-30 04:55:00,
2013-05-29 23:00:00,64.0,32.7,29.42,WNW,289,6.0,-999.0,13,-99.99,,,0.00,0.0,cwc,2013-05-30 05:00:00,
2013-05-29 23:05:00,63.9,32.6,29.42,SW,227,8.0,-999.0,13,-99.99,,,0.00,0.0,cwc,2013-05-30 05:05:00,
2013-05-29 23:10:00,63.7,32.4,29.42,WSW,247,8.0,-999.0,13,-99.99,,,0.00,0.0,cwc,2013-05-30 05:10:00,
2013-05-29 23:15:00,63.7,32.7,29.42,WSW,256,0.0,-999.0,14,-99.99,,,0.00,0.0,cwc,2013-05-30 05:15:00,
2013-05-29 23:20:00,63.4,32.4,29.42,NW,305,6.0,-999.0,14,-99.99,,,0.00,0.0,cwc,2013-05-30 05:20:00,
2013-05-29 23:25:00,63.1,32.1,29.42,WNW,282,0.0,-999.0,14,-99.99,,,0.00,0.0,cwc,2013-05-30 05:25:00,
2013-05-29 23:35:00,62.6,31.6,29.44,West,275,1.0,-999.0,14,-99.99,,,0.00,0.0,cwc,2013-05-30 05:35:00,
2013-05-29 23:40:00,62.4,31.4,29.44,SW,223,0.0,-999.0,14,-99.99,,,0.00,0.0,cwc,2013-05-30 05:40:00,
2013-05-29 23:45:00,62.3,31.3,29.44,WSW,254,0.0,-999.0,14,-99.99,,,0.00,0.0,cwc,2013-05-30 05:45:00,
2013-05-29 23:50:00,62.0,31.0,29.44,WSW,254,0.0,-999.0,14,-99.99,,,0.00,0.0,cwc,2013-05-30 05:50:00,
2013-05-29 23:55:00,61.8,31.2,29.44,WSW,256,2.0,-999.0,15,-99.99,,,0.00,0.0,cwc,2013-05-30 05:55:00,